createdAt,value
2019-02-18T00:00:55.708Z,9.43
2019-02-18T00:03:24.155Z,10.20
2019-02-18T00:05:52.782Z,10.43
2019-02-18T00:08:21.195Z,9.90
2019-02-18T00:11:09.042Z,9.40
2019-02-18T00:13:37.944Z,9.40
2019-02-18T00:16:25.723Z,10.70
2019-02-18T00:18:54.150Z,9.90
2019-02-18T00:21:22.584Z,10.40
2019-02-18T00:23:51.028Z,9.80
2019-02-18T00:26:19.479Z,11.10
2019-02-18T00:28:47.896Z,10.87
2019-02-18T00:31:16.350Z,10.13
2019-02-18T00:33:44.764Z,10.10
2019-02-18T00:36:13.197Z,9.80
2019-02-18T00:38:41.698Z,9.77
2019-02-18T00:41:10.127Z,10.07
2019-02-18T00:43:38.571Z,10.00
2019-02-18T00:46:06.987Z,9.80
2019-02-18T00:48:35.472Z,9.53
2019-02-18T00:51:04.009Z,10.10
2019-02-18T00:53:32.457Z,11.50
2019-02-18T00:56:00.995Z,9.33
2019-02-18T00:58:29.419Z,9.53
2019-02-18T01:00:57.853Z,9.50
2019-02-18T01:03:26.279Z,10.10
2019-02-18T01:05:55.756Z,10.60
2019-02-18T01:08:43.639Z,9.20
2019-02-18T01:11:12.153Z,9.70
2019-02-18T01:13:40.603Z,10.60
2019-02-18T01:16:09.026Z,11.23
2019-02-18T01:18:56.871Z,8.87
2019-02-18T01:21:25.322Z,10.50
2019-02-18T01:23:53.782Z,9.63
2019-02-18T01:26:22.196Z,11.00
2019-02-18T01:29:10.046Z,9.87
2019-02-18T01:31:38.480Z,9.97
2019-02-18T01:34:06.919Z,9.90
2019-02-18T01:36:35.366Z,9.90
2019-02-18T01:39:04.529Z,10.00
2019-02-18T01:41:32.975Z,10.07
2019-02-18T01:44:01.392Z,9.73
2019-02-18T01:46:29.837Z,9.93
2019-02-18T01:48:58.251Z,9.70
2019-02-18T01:51:46.074Z,10.43
2019-02-18T01:54:14.576Z,10.07
2019-02-18T01:56:43.061Z,9.00
2019-02-18T02:02:07.148Z,10.07
2019-02-18T02:04:35.582Z,8.37
2019-02-18T02:07:04.068Z,9.70
2019-02-18T02:09:32.509Z,9.27
2019-02-18T02:12:20.290Z,9.67
2019-02-18T02:14:48.715Z,9.17
2019-02-18T02:17:17.156Z,10.00
2019-02-18T02:19:45.575Z,8.80
2019-02-18T02:22:14.107Z,9.57
2019-02-18T02:24:42.535Z,8.97
2019-02-18T02:27:10.957Z,10.10
2019-02-18T02:29:39.394Z,8.07
2019-02-18T02:32:08.221Z,8.67
2019-02-18T02:34:37.127Z,8.77
2019-02-18T02:37:05.957Z,9.67
2019-02-18T02:39:53.774Z,8.63
2019-02-18T02:42:22.279Z,8.50
2019-02-18T02:44:50.700Z,9.30
2019-02-18T02:47:19.155Z,9.33
2019-02-18T02:49:47.571Z,9.80
2019-02-18T02:52:16.012Z,9.00
2019-02-18T02:54:44.443Z,9.20
2019-02-18T02:57:12.884Z,8.47
2019-02-18T02:59:41.323Z,9.33
2019-02-18T03:02:29.104Z,9.33
2019-02-18T03:04:57.556Z,8.70
2019-02-18T03:07:25.987Z,9.40
2019-02-18T03:09:54.436Z,9.23
2019-02-18T03:12:42.229Z,9.00
2019-02-18T03:15:12.375Z,8.80
2019-02-18T03:17:40.827Z,8.00
2019-02-18T03:20:10.199Z,8.40
2019-02-18T03:22:38.628Z,8.93
2019-02-18T03:25:16.127Z,7.63
2019-02-18T03:27:44.576Z,9.17
2019-02-18T03:30:41.831Z,8.97
2019-02-18T03:33:13.934Z,9.17
2019-02-18T03:35:42.559Z,8.37
2019-02-18T03:38:10.978Z,8.57
2019-02-18T03:40:39.405Z,9.07
2019-02-18T03:43:07.921Z,8.20
2019-02-18T03:45:36.350Z,10.20
2019-02-18T03:48:04.760Z,7.60
2019-02-18T03:50:33.204Z,8.33
2019-02-18T03:53:01.627Z,7.53
2019-02-18T03:55:30.175Z,9.40
2019-02-18T03:57:58.700Z,9.53
2019-02-18T04:00:27.120Z,9.33
2019-02-18T04:02:55.558Z,9.53
2019-02-18T04:05:24.053Z,9.70
2019-02-18T04:07:52.505Z,9.47
2019-02-18T04:10:20.912Z,9.20
2019-02-18T04:12:49.335Z,9.97
2019-02-18T04:15:18.055Z,10.00
2019-02-18T04:17:46.490Z,9.63
2019-02-18T04:20:14.988Z,9.00
2019-02-18T04:22:43.491Z,10.37
2019-02-18T04:25:11.940Z,8.30
2019-02-18T04:27:40.383Z,9.60
2019-02-18T04:30:13.650Z,9.70
2019-02-18T04:32:41.715Z,9.70
2019-02-18T04:35:10.219Z,10.67
2019-02-18T04:37:38.683Z,10.20
2019-02-18T04:40:08.528Z,9.80
2019-02-18T04:42:37.039Z,9.57
2019-02-18T04:45:10.183Z,9.90
2019-02-18T04:47:57.954Z,9.73
2019-02-18T04:50:26.448Z,7.73
2019-02-18T04:52:54.919Z,8.77
2019-02-18T04:55:23.396Z,8.70
2019-02-18T04:57:51.845Z,7.77
2019-02-18T05:00:20.269Z,8.30
2019-02-18T05:02:48.711Z,7.90
2019-02-18T05:05:28.989Z,8.37
2019-02-18T05:07:57.408Z,8.70
2019-02-18T05:13:21.298Z,8.27
2019-02-18T05:15:49.759Z,9.47
2019-02-18T05:18:18.240Z,8.93
2019-02-18T05:20:46.657Z,8.90
2019-02-18T05:23:34.438Z,9.23
2019-02-18T05:26:14.609Z,9.60
2019-02-18T05:28:43.103Z,9.67
2019-02-18T05:31:11.524Z,10.03
2019-02-18T05:33:45.884Z,10.63
2019-02-18T05:36:33.665Z,9.77
2019-02-18T05:39:02.189Z,9.40
2019-02-18T05:41:31.318Z,9.50
2019-02-18T05:44:00.094Z,8.97
2019-02-18T05:46:29.075Z,9.67
2019-02-18T05:48:57.526Z,10.10
2019-02-18T05:51:25.956Z,10.30
2019-02-18T05:53:54.392Z,9.40
2019-02-18T05:56:42.155Z,10.07
2019-02-18T05:59:10.603Z,9.03
2019-02-18T06:01:39.015Z,9.30
2019-02-18T06:04:07.535Z,10.10
2019-02-18T06:06:36.459Z,10.00
2019-02-18T06:09:05.402Z,10.63
2019-02-18T06:11:33.822Z,10.03
2019-02-18T06:14:02.268Z,11.47
2019-02-18T06:16:30.719Z,9.87
2019-02-18T06:19:18.483Z,10.00
2019-02-18T06:21:59.544Z,9.60
2019-02-18T06:24:27.973Z,10.23
2019-02-18T06:26:56.419Z,10.40
2019-02-18T06:29:24.838Z,9.50
2019-02-18T06:31:53.285Z,9.70
2019-02-18T06:34:22.892Z,9.50
2019-02-18T06:37:10.748Z,10.50
2019-02-18T06:39:41.793Z,9.00
2019-02-18T06:42:28.658Z,9.13
2019-02-18T06:44:58.753Z,9.70
2019-02-18T06:47:46.569Z,9.47
2019-02-18T06:50:14.988Z,9.47
2019-02-18T06:52:43.443Z,9.80
2019-02-18T06:55:13.004Z,8.83
2019-02-18T06:58:08.489Z,9.70
2019-02-18T07:00:44.365Z,9.37
2019-02-18T07:03:26.582Z,9.53
2019-02-18T07:05:59.420Z,11.27
2019-02-18T07:11:33.552Z,8.70
2019-02-18T07:14:21.303Z,8.43
2019-02-18T07:16:49.755Z,9.97
2019-02-18T07:19:37.531Z,9.10
2019-02-18T07:22:05.943Z,9.70
2019-02-18T07:24:34.407Z,10.20
2019-02-18T07:29:51.619Z,9.70
2019-02-18T07:32:20.047Z,9.40
2019-02-18T07:34:48.510Z,9.67
2019-02-18T07:37:36.293Z,9.47
2019-02-18T07:40:06.912Z,8.53
2019-02-18T07:42:35.379Z,10.07
2019-02-18T07:45:04.540Z,9.80
2019-02-18T07:47:32.979Z,8.83
2019-02-18T07:50:01.482Z,9.03
2019-02-18T07:52:29.890Z,10.10
2019-02-18T07:55:17.696Z,9.40
2019-02-18T07:57:46.110Z,9.57
2019-02-18T08:00:33.928Z,9.90
2019-02-18T08:03:02.343Z,9.17
2019-02-18T08:05:30.795Z,10.03
2019-02-18T08:07:59.208Z,8.83
2019-02-18T08:10:28.767Z,8.60
2019-02-18T08:13:09.805Z,8.00
2019-02-18T08:15:38.319Z,9.80
2019-02-18T08:18:06.801Z,7.47
2019-02-18T08:20:54.616Z,9.60
2019-02-18T08:23:23.135Z,8.63
2019-02-18T08:26:10.888Z,9.63
2019-02-18T08:28:39.341Z,10.30
2019-02-18T08:31:07.752Z,9.00
2019-02-18T08:33:36.201Z,8.03
2019-02-18T08:36:04.612Z,8.70
2019-02-18T08:38:33.055Z,9.07
2019-02-18T08:41:01.504Z,9.00
2019-02-18T08:43:29.948Z,9.90
2019-02-18T08:45:58.391Z,9.00
2019-02-18T08:48:26.809Z,8.93
2019-02-18T08:50:55.238Z,10.20
2019-02-18T08:56:37.924Z,9.50
2019-02-18T08:59:06.435Z,8.83
2019-02-18T09:01:34.849Z,9.83
2019-02-18T09:04:03.283Z,9.63
2019-02-18T09:06:31.738Z,10.20
2019-02-18T09:09:00.169Z,9.77
2019-02-18T09:11:28.588Z,10.23
2019-02-18T09:13:59.408Z,9.43
2019-02-18T09:16:27.855Z,10.00
2019-02-18T09:18:56.374Z,11.80
2019-02-18T09:21:26.175Z,10.17
2019-02-18T09:23:56.266Z,9.30
2019-02-18T09:26:24.673Z,9.83
2019-02-18T09:28:53.144Z,10.90
2019-02-18T09:31:23.233Z,9.80
2019-02-18T09:33:51.698Z,9.30
2019-02-18T09:36:21.426Z,9.50
2019-02-18T09:38:51.554Z,10.27
2019-02-18T09:41:20.076Z,9.07
2019-02-18T09:43:48.592Z,7.40
2019-02-18T09:46:17.032Z,9.30
2019-02-18T09:48:45.443Z,9.93
2019-02-18T09:51:13.884Z,9.50
2019-02-18T09:53:42.306Z,9.70
2019-02-18T09:56:10.751Z,9.10
2019-02-18T09:58:39.154Z,9.63
2019-02-18T10:01:07.600Z,10.40
2019-02-18T10:03:36.020Z,9.50
2019-02-18T10:06:04.470Z,8.90
2019-02-18T10:08:32.917Z,10.03
2019-02-18T10:11:20.682Z,9.90
2019-02-18T10:13:49.123Z,9.90
2019-02-18T10:16:36.911Z,9.37
2019-02-18T10:19:05.351Z,9.23
2019-02-18T10:21:33.772Z,10.67
2019-02-18T10:24:21.551Z,10.23
2019-02-18T10:26:49.985Z,10.07
2019-02-18T10:29:30.404Z,9.13
2019-02-18T10:31:58.825Z,8.67
2019-02-18T10:34:27.242Z,10.03
2019-02-18T10:37:15.043Z,10.10
2019-02-18T10:39:43.592Z,9.70
2019-02-18T10:42:12.036Z,9.20
2019-02-18T10:44:40.475Z,9.73
2019-02-18T10:47:08.897Z,10.53
2019-02-18T10:49:37.496Z,8.90
2019-02-18T10:52:05.941Z,8.40
2019-02-18T10:54:34.394Z,11.13
2019-02-18T10:57:02.927Z,10.70
2019-02-18T10:59:31.447Z,10.97
2019-02-18T11:01:59.869Z,11.23
2019-02-18T11:04:28.695Z,11.20
2019-02-18T11:06:57.187Z,11.03
2019-02-18T11:09:25.644Z,10.50
2019-02-18T11:12:13.405Z,10.00
2019-02-18T11:14:43.355Z,10.13
2019-02-18T11:17:11.843Z,10.03
2019-02-18T11:19:40.296Z,14.93
2019-02-18T11:22:08.721Z,16.20
2019-02-18T11:24:44.834Z,15.47
2019-02-18T11:27:32.658Z,10.57
2019-02-18T11:30:01.169Z,5.47
2019-02-18T11:32:49.020Z,10.83
2019-02-18T11:35:17.502Z,9.27
2019-02-18T11:38:05.294Z,9.30
2019-02-18T11:40:34.296Z,9.87
2019-02-18T11:43:02.740Z,10.60
2019-02-18T11:45:50.597Z,10.30
2019-02-18T11:48:19.019Z,10.80
2019-02-18T11:51:06.819Z,10.83
2019-02-18T11:53:35.242Z,12.20
2019-02-18T11:56:03.700Z,10.17
2019-02-18T11:58:51.489Z,11.23
2019-02-18T12:01:19.994Z,11.10
2019-02-18T12:04:01.022Z,11.53
2019-02-18T12:06:29.544Z,12.10
2019-02-18T12:08:58.067Z,10.47
2019-02-18T12:11:45.832Z,11.30
2019-02-18T12:14:14.431Z,11.07
2019-02-18T12:16:42.850Z,10.70
2019-02-18T12:19:11.276Z,11.70
2019-02-18T12:21:59.067Z,10.87
2019-02-18T12:24:27.509Z,10.97
2019-02-18T12:26:56.024Z,10.77
2019-02-18T12:29:26.594Z,9.87
2019-02-18T12:32:13.947Z,12.10
2019-02-18T12:34:42.371Z,9.30
2019-02-18T12:37:10.812Z,10.60
2019-02-18T12:39:39.255Z,11.23
2019-02-18T12:42:27.108Z,13.50
2019-02-18T12:44:56.003Z,10.87
2019-02-18T12:47:24.460Z,12.00
2019-02-18T12:49:52.952Z,11.47
2019-02-18T12:52:21.469Z,11.43
2019-02-18T12:54:50.050Z,11.30
2019-02-18T12:57:18.638Z,12.73
2019-02-18T13:00:11.027Z,10.67
2019-02-18T13:02:51.719Z,11.13
2019-02-18T13:05:32.572Z,12.50
2019-02-18T13:08:02.816Z,12.63
2019-02-18T13:10:34.863Z,10.70
2019-02-18T13:13:01.646Z,10.93
2019-02-18T13:15:30.147Z,11.10
2019-02-18T13:17:58.671Z,10.30
2019-02-18T13:20:27.229Z,11.90
2019-02-18T13:22:55.751Z,11.33
2019-02-18T13:25:24.323Z,10.90
2019-02-18T13:27:52.778Z,11.30
2019-02-18T13:30:21.270Z,10.97
2019-02-18T13:32:49.898Z,11.20
2019-02-18T13:35:18.452Z,10.90
2019-02-18T13:38:06.324Z,11.67
2019-02-18T13:40:34.747Z,10.10
2019-02-18T13:43:03.190Z,12.20
2019-02-18T13:45:31.708Z,11.50
2019-02-18T13:48:00.220Z,12.30
2019-02-18T13:50:28.675Z,11.00
2019-02-18T13:52:57.243Z,10.97
2019-02-18T13:55:26.076Z,10.07
2019-02-18T13:57:54.538Z,12.67
2019-02-18T14:00:23.134Z,11.70
2019-02-18T14:02:51.651Z,12.20
2019-02-18T14:05:21.404Z,12.30
2019-02-18T14:08:09.278Z,12.60
2019-02-18T14:10:57.450Z,11.30
2019-02-18T14:13:25.932Z,14.47
2019-02-18T14:18:49.151Z,13.53
2019-02-18T14:21:36.947Z,12.57
2019-02-18T14:24:05.777Z,12.40
2019-02-18T14:26:34.277Z,12.00
2019-02-18T14:29:22.105Z,12.90
2019-02-18T14:32:02.826Z,12.70
2019-02-18T14:34:31.317Z,12.10
2019-02-18T14:36:59.851Z,13.17
2019-02-18T14:39:28.430Z,11.37
2019-02-18T14:41:57.055Z,12.33
2019-02-18T14:44:25.614Z,12.53
2019-02-18T14:46:54.072Z,11.83
2019-02-18T14:49:42.125Z,12.67
2019-02-18T14:52:10.687Z,12.93
2019-02-18T14:54:39.238Z,12.30
2019-02-18T14:57:07.668Z,12.40
2019-02-18T14:59:36.310Z,12.50
2019-02-18T15:02:04.833Z,12.90
2019-02-18T15:04:45.301Z,13.10
2019-02-18T15:07:13.845Z,13.33
2019-02-18T15:09:42.348Z,12.67
2019-02-18T15:12:12.489Z,14.50
2019-02-18T15:14:42.721Z,12.50
2019-02-18T15:17:11.309Z,13.90
2019-02-18T15:19:39.828Z,13.20
2019-02-18T15:22:27.598Z,11.90
2019-02-18T15:24:56.423Z,13.30
2019-02-18T15:27:24.994Z,14.33
2019-02-18T15:30:14.324Z,12.67
2019-02-18T15:32:42.818Z,13.93
2019-02-18T15:35:11.262Z,13.23
2019-02-18T15:37:39.772Z,12.70
2019-02-18T15:40:11.980Z,15.33
2019-02-18T15:42:42.547Z,13.67
2019-02-18T15:45:10.903Z,13.90
2019-02-18T15:47:39.415Z,14.30
2019-02-18T15:50:10.640Z,13.47
2019-02-18T15:52:39.163Z,13.63
2019-02-18T15:55:08.788Z,13.50
2019-02-18T15:57:37.292Z,15.67
2019-02-18T16:00:08.925Z,13.13
2019-02-18T16:02:37.422Z,12.87
2019-02-18T16:05:06.420Z,13.57
2019-02-18T16:07:34.988Z,13.07
2019-02-18T16:10:04.360Z,11.90
2019-02-18T16:12:32.817Z,12.67
2019-02-18T16:15:20.655Z,13.73
2019-02-18T16:17:49.187Z,12.50
2019-02-18T16:20:36.951Z,12.70
2019-02-18T16:23:05.482Z,12.27
2019-02-18T16:25:33.979Z,12.40
2019-02-18T16:28:22.475Z,12.37
2019-02-18T16:31:10.303Z,12.20
2019-02-18T16:33:38.844Z,12.30
2019-02-18T16:36:10.109Z,14.07
2019-02-18T16:38:38.843Z,13.40
2019-02-18T16:41:26.701Z,12.50
2019-02-18T16:44:14.541Z,12.50
2019-02-18T16:46:43.078Z,12.80
2019-02-18T16:49:11.902Z,12.53
2019-02-18T16:51:40.401Z,11.67
2019-02-18T16:54:09.053Z,11.70
2019-02-18T16:56:37.527Z,13.10
2019-02-18T16:59:05.974Z,13.80
2019-02-18T17:04:29.648Z,11.83
2019-02-18T17:06:58.224Z,12.33
2019-02-18T17:09:26.671Z,11.80
2019-02-18T17:11:55.134Z,12.30
2019-02-18T17:14:23.632Z,13.20
2019-02-18T17:16:52.094Z,12.83
2019-02-18T17:19:39.955Z,12.67
2019-02-18T17:22:08.450Z,13.03
2019-02-18T17:24:36.902Z,11.90
2019-02-18T17:27:05.370Z,12.30
2019-02-18T17:29:33.903Z,12.47
2019-02-18T17:34:57.294Z,13.67
2019-02-18T17:37:25.801Z,13.40
2019-02-18T17:39:54.305Z,12.57
2019-02-18T17:42:22.899Z,13.27
2019-02-18T17:44:51.391Z,12.13
2019-02-18T17:47:22.480Z,14.30
2019-02-18T17:49:50.991Z,13.83
2019-02-18T17:52:19.433Z,13.23
2019-02-18T17:55:08.767Z,12.50
2019-02-18T17:57:37.616Z,12.13
2019-02-18T18:00:09.219Z,14.97
2019-02-18T18:02:37.710Z,13.40
2019-02-18T18:05:07.805Z,13.17
2019-02-18T18:07:36.314Z,13.33
2019-02-18T18:10:24.147Z,14.03
2019-02-18T18:12:52.604Z,14.33
2019-02-18T18:15:40.434Z,13.87
2019-02-18T18:18:08.876Z,15.00
2019-02-18T18:20:37.603Z,15.47
2019-02-18T18:23:06.129Z,14.83
2019-02-18T18:25:34.658Z,14.90
2019-02-18T18:28:03.186Z,15.70
2019-02-18T18:30:31.617Z,18.80
2019-02-18T18:33:01.184Z,18.87
2019-02-18T18:35:49.021Z,17.37
2019-02-18T18:38:30.063Z,17.00
2019-02-18T18:40:58.512Z,15.53
2019-02-18T18:43:33.560Z,16.07
2019-02-18T18:45:57.108Z,14.77
2019-02-18T18:48:25.542Z,14.07
2019-02-18T18:50:53.992Z,15.07
2019-02-18T18:53:22.447Z,13.27
2019-02-18T18:55:50.949Z,13.33
2019-02-18T18:58:19.383Z,15.17
2019-02-18T19:00:48.014Z,13.70
2019-02-18T19:03:16.443Z,14.50
2019-02-18T19:05:44.971Z,14.17
2019-02-18T19:08:13.395Z,12.40
2019-02-18T19:10:41.847Z,14.03
2019-02-18T19:13:10.897Z,13.20
2019-02-18T19:15:39.897Z,12.90
2019-02-18T19:18:08.323Z,13.53
2019-02-18T19:20:36.848Z,13.10
2019-02-18T19:23:05.324Z,14.67
2019-02-18T19:25:33.780Z,13.73
2019-02-18T19:28:21.548Z,13.40
2019-02-18T19:30:50.006Z,11.80
2019-02-18T19:33:37.847Z,13.63
2019-02-18T19:36:18.857Z,12.87
2019-02-18T19:38:47.381Z,13.17
2019-02-18T19:41:35.226Z,13.23
2019-02-18T19:44:05.265Z,13.40
2019-02-18T19:46:34.267Z,13.43
2019-02-18T19:49:22.066Z,14.17
2019-02-18T19:51:50.601Z,14.13
2019-02-18T19:54:19.076Z,15.67
2019-02-18T19:56:47.891Z,15.07
2019-02-18T19:59:16.425Z,14.93
2019-02-18T20:01:44.842Z,16.13
2019-02-18T20:04:13.296Z,17.67
2019-02-18T20:06:54.169Z,16.30
2019-02-18T20:09:22.687Z,20.20
2019-02-18T20:12:10.444Z,15.10
2019-02-18T20:14:38.995Z,14.60
2019-02-18T20:17:07.452Z,14.73
2019-02-18T20:19:35.886Z,14.90
2019-02-18T20:22:24.053Z,14.40
2019-02-18T20:24:52.543Z,14.07
2019-02-18T20:27:21.561Z,16.73
2019-02-18T20:29:49.991Z,14.30
2019-02-18T20:32:18.851Z,13.93
2019-02-18T20:34:47.339Z,14.90
2019-02-18T20:37:15.789Z,14.50
2019-02-18T20:39:53.112Z,17.07
2019-02-18T20:42:21.817Z,14.80
2019-02-18T20:44:50.703Z,13.83
2019-02-18T20:47:21.520Z,14.40
2019-02-18T20:49:50.330Z,14.20
2019-02-18T20:52:18.863Z,15.77
2019-02-18T20:54:47.508Z,12.50
2019-02-18T20:57:16.378Z,13.67
2019-02-18T20:59:44.882Z,14.40
2019-02-18T21:02:13.489Z,13.07
2019-02-18T21:04:44.191Z,12.87
2019-02-18T21:07:31.970Z,11.37
2019-02-18T21:10:00.458Z,12.23
2019-02-18T21:12:29.416Z,13.33
2019-02-18T21:14:57.839Z,12.83
2019-02-18T21:17:26.303Z,11.70
2019-02-18T21:19:54.819Z,11.37
2019-02-18T21:22:23.259Z,11.17
2019-02-18T21:24:51.786Z,10.83
2019-02-18T21:27:20.687Z,11.00
2019-02-18T21:29:49.147Z,11.30
2019-02-18T21:32:36.903Z,11.10
2019-02-18T21:35:06.408Z,10.40
2019-02-18T21:37:34.958Z,11.43
2019-02-18T21:40:04.720Z,10.07
2019-02-18T21:42:33.254Z,9.97
2019-02-18T21:45:01.821Z,10.07
2019-02-18T21:47:49.725Z,5.87
2019-02-18T21:50:19.369Z,10.20
2019-02-18T21:53:07.273Z,9.70
2019-02-18T21:55:36.101Z,10.33
2019-02-18T21:58:23.903Z,10.10
2019-02-18T22:00:52.404Z,10.57
2019-02-18T22:03:40.250Z,10.77
2019-02-18T22:06:28.015Z,11.77
2019-02-18T22:08:56.472Z,10.50
2019-02-18T22:11:26.291Z,12.03
2019-02-18T22:13:54.807Z,11.03
2019-02-18T22:16:23.249Z,13.07
2019-02-18T22:18:51.752Z,12.60
2019-02-18T22:21:39.545Z,11.13
2019-02-18T22:24:07.990Z,11.17
2019-02-18T22:26:36.436Z,11.70
2019-02-18T22:29:04.860Z,11.37
2019-02-18T22:31:52.668Z,11.80
2019-02-18T22:34:21.165Z,11.50
2019-02-18T22:36:49.643Z,11.33
2019-02-18T22:39:18.103Z,11.23
2019-02-18T22:41:46.535Z,12.40
2019-02-18T22:44:15.100Z,10.60
2019-02-18T22:46:43.590Z,10.27
2019-02-18T22:49:12.127Z,9.97
2019-02-18T22:54:29.335Z,11.10
2019-02-18T22:56:57.765Z,9.73
2019-02-18T22:59:26.791Z,10.07
2019-02-18T23:02:15.342Z,10.10
2019-02-18T23:04:56.232Z,9.23
2019-02-18T23:07:24.645Z,9.10
2019-02-18T23:09:53.439Z,9.50
2019-02-18T23:12:41.244Z,10.43
2019-02-18T23:18:24.135Z,9.70
2019-02-18T23:21:05.239Z,10.27
2019-02-18T23:23:33.729Z,8.53
2019-02-18T23:26:02.530Z,9.60
2019-02-18T23:28:30.989Z,9.80
2019-02-18T23:30:59.486Z,8.30
2019-02-18T23:33:27.937Z,9.00
2019-02-18T23:35:56.431Z,8.83
2019-02-18T23:38:24.883Z,9.03
2019-02-18T23:41:12.644Z,9.40
2019-02-18T23:43:41.076Z,9.83
2019-02-18T23:46:09.482Z,9.73
2019-02-18T23:48:57.272Z,9.63
2019-02-18T23:51:45.031Z,9.77
2019-02-18T23:54:25.846Z,9.37
2019-02-18T23:56:54.265Z,9.90
2019-02-18T23:59:22.712Z,10.03
